FSM weather

Fort Smith Regional Airport
Fort Smith, Arkansas, United States

Public forecast

Using degrees Fahrenheit for public forecast. Weather courtesy of forecast.io.

Current aviation weather report (METAR) for Fort Smith Regional Airport

Retrieved 2019/12/13 03:53 UTC (59 minutes ago):

KFSM 130353Z 03003KT 10SM FEW065 05/00 A3011 RMK AO2 SLP197 T00500000

Aviation forecast (TAF) for Fort Smith Regional Airport

Forecast is more than 6 hours old.

Retrieved 2019/12/12 18:33 UTC (10 hours ago):

TAF KFSM 121730Z 1218/1318 08008KT P6SM SCT250 FM130300 09003KT P6SM BKN250 FM131200 06003KT P6SM OVC050